Fairwater, Wisconsin
Current Conditions -  °F | °C
As of 3:53 PM on Thursday 27 Nov 2014 (Local Time) from KFLD Reporting Station
Few Clouds Few Clouds  
Wind Chill:   Ceiling: Unl
Heat Index: 15°   Visibility: 10mi
Dew Point:   Wind: 5mph
Humidity: 68%   Direction: 320°NW
Pressure: 30.37"   Gusts: NA
Location:  43.74°N, 88.87°W
Report Text: KFLD 272153Z AUTO 32004KT 10SM FEW022 M09/M14 A3037 RMK AO2 SLP299 T10941144
Loading
Personal Weather Stations






























Interactive Weather Map New forecast layout! Learn more

10-Day Weather Forecast

Advertisements
Track Severe Weather on mobile